sensor_id;sensor_type;location;lat;lon;timestamp;pressure;altitude;pressure_sealevel;temperature;humidity
62122;BME280;48108;47.532;19.084;2023-09-08T04:10:27;101060.69;;;15.34;100.00
62122;BME280;48108;47.532;19.084;2023-09-08T04:13:31;101064.84;;;15.30;100.00
62122;BME280;48108;47.532;19.084;2023-09-08T04:16:35;101050.78;;;15.27;100.00
62122;BME280;48108;47.532;19.084;2023-09-08T04:19:39;101061.19;;;15.23;100.00
62122;BME280;48108;47.532;19.084;2023-09-08T04:22:43;101065.78;;;15.23;100.00
62122;BME280;48108;47.532;19.084;2023-09-08T04:25:47;101063.91;;;15.23;100.00
62122;BME280;48108;47.532;19.084;2023-09-08T04:28:52;101066.44;;;15.25;100.00
62122;BME280;48108;47.532;19.084;2023-09-08T04:31:55;101060.31;;;15.37;100.00
62122;BME280;48108;47.532;19.084;2023-09-08T04:34:58;101064.13;;;15.43;100.00
62122;BME280;48108;47.532;19.084;2023-09-08T04:38:02;101063.47;;;15.41;100.00
62122;BME280;48108;47.532;19.084;2023-09-08T04:41:07;101063.84;;;15.38;100.00
62122;BME280;48108;47.532;19.084;2023-09-08T04:44:10;101077.69;;;15.43;100.00
62122;BME280;48108;47.532;19.084;2023-09-08T04:47:14;101069.44;;;15.51;100.00
62122;BME280;48108;47.532;19.084;2023-09-08T04:50:17;101064.72;;;15.60;100.00
62122;BME280;48108;47.532;19.084;2023-09-08T04:53:21;101078.44;;;15.73;100.00
62122;BME280;48108;47.532;19.084;2023-09-08T04:56:24;101077.84;;;15.78;100.00
62122;BME280;48108;47.532;19.084;2023-09-08T04:59:27;101072.34;;;15.93;100.00
62122;BME280;48108;47.532;19.084;2023-09-08T05:02:31;101073.19;;;15.93;100.00
62122;BME280;48108;47.532;19.084;2023-09-08T05:05:34;101070.06;;;15.96;100.00
62122;BME280;48108;47.532;19.084;2023-09-08T05:08:37;101070.97;;;16.03;100.00
62122;BME280;48108;47.532;19.084;2023-09-08T05:11:41;101075.19;;;16.06;100.00
62122;BME280;48108;47.532;19.084;2023-09-08T05:14:44;101076.75;;;16.22;100.00
62122;BME280;48108;47.532;19.084;2023-09-08T05:17:48;101072.41;;;16.27;100.00
62122;BME280;48108;47.532;19.084;2023-09-08T05:20:51;101076.66;;;16.37;100.00
62122;BME280;48108;47.532;19.084;2023-09-08T05:23:55;101076.69;;;16.43;100.00
62122;BME280;48108;47.532;19.084;2023-09-08T05:26:58;101090.38;;;16.57;100.00
62122;BME280;48108;47.532;19.084;2023-09-08T05:30:01;101082.25;;;16.63;100.00
62122;BME280;48108;47.532;19.084;2023-09-08T05:33:06;101085.69;;;16.78;100.00
62122;BME280;48108;47.532;19.084;2023-09-08T05:36:10;101085.81;;;16.98;100.00
62122;BME280;48108;47.532;19.084;2023-09-08T05:39:18;101084.56;;;17.08;100.00
62122;BME280;48108;47.532;19.084;2023-09-08T05:42:22;101086.06;;;17.17;100.00
62122;BME280;48108;47.532;19.084;2023-09-08T05:45:25;101082.78;;;17.28;100.00
62122;BME280;48108;47.532;19.084;2023-09-08T05:48:28;101084.91;;;17.39;100.00
62122;BME280;48108;47.532;19.084;2023-09-08T05:51:32;101078.03;;;17.50;100.00
62122;BME280;48108;47.532;19.084;2023-09-08T05:54:36;101079.50;;;17.66;100.00
62122;BME280;48108;47.532;19.084;2023-09-08T05:57:39;101082.47;;;17.78;100.00
62122;BME280;48108;47.532;19.084;2023-09-08T06:00:43;101079.78;;;17.91;100.00
62122;BME280;48108;47.532;19.084;2023-09-08T06:03:48;101078.91;;;18.10;100.00
62122;BME280;48108;47.532;19.084;2023-09-08T06:06:51;101082.91;;;18.28;100.00
62122;BME280;48108;47.532;19.084;2023-09-08T06:09:56;101085.00;;;18.32;100.00
62122;BME280;48108;47.532;19.084;2023-09-08T06:12:59;101092.13;;;18.47;100.00
62122;BME280;48108;47.532;19.084;2023-09-08T06:16:02;101091.22;;;18.73;100.00
62122;BME280;48108;47.532;19.084;2023-09-08T06:19:05;101091.22;;;18.79;100.00
62122;BME280;48108;47.532;19.084;2023-09-08T06:22:09;101096.38;;;19.01;100.00
62122;BME280;48108;47.532;19.084;2023-09-08T06:25:12;101098.44;;;19.19;100.00
62122;BME280;48108;47.532;19.084;2023-09-08T06:28:16;101099.75;;;19.41;100.00
62122;BME280;48108;47.532;19.084;2023-09-08T06:31:19;101101.56;;;19.61;100.00
62122;BME280;48108;47.532;19.084;2023-09-08T06:34:23;101097.72;;;19.75;100.00
62122;BME280;48108;47.532;19.084;2023-09-08T06:37:26;101096.59;;;19.83;100.00
62122;BME280;48108;47.532;19.084;2023-09-08T06:40:30;101098.00;;;19.92;100.00
62122;BME280;48108;47.532;19.084;2023-09-08T06:43:32;101092.66;;;20.04;100.00
62122;BME280;48108;47.532;19.084;2023-09-08T06:46:37;101092.09;;;20.20;99.43
62122;BME280;48108;47.532;19.084;2023-09-08T06:49:40;101093.56;;;20.41;98.50
62122;BME280;48108;47.532;19.084;2023-09-08T06:52:44;101089.22;;;20.58;96.54
62122;BME280;48108;47.532;19.084;2023-09-08T06:55:47;101091.06;;;20.83;94.83
62122;BME280;48108;47.532;19.084;2023-09-08T06:58:51;101086.88;;;20.99;94.86
62122;BME280;48108;47.532;19.084;2023-09-08T07:01:54;101084.34;;;21.16;93.14
62122;BME280;48108;47.532;19.084;2023-09-08T07:04:58;101088.13;;;21.33;94.23
62122;BME280;48108;47.532;19.084;2023-09-08T07:08:02;101091.53;;;21.47;90.38
62122;BME280;48108;47.532;19.084;2023-09-08T07:11:06;101083.69;;;21.50;88.22
62122;BME280;48108;47.532;19.084;2023-09-08T07:14:09;101079.09;;;21.74;88.58
62122;BME280;48108;47.532;19.084;2023-09-08T07:17:13;101077.87;;;21.59;87.42
62122;BME280;48108;47.532;19.084;2023-09-08T07:20:16;101078.34;;;21.67;87.70
62122;BME280;48108;47.532;19.084;2023-09-08T07:23:20;101076.75;;;21.90;87.51
62122;BME280;48108;47.532;19.084;2023-09-08T07:26:24;101074.84;;;22.02;86.04
62122;BME280;48108;47.532;19.084;2023-09-08T07:29:27;101071.31;;;22.25;87.00
62122;BME280;48108;47.532;19.084;2023-09-08T07:32:30;101063.00;;;22.44;83.06
62122;BME280;48108;47.532;19.084;2023-09-08T07:35:38;101062.59;;;22.52;81.64
62122;BME280;48108;47.532;19.084;2023-09-08T07:38:41;101063.34;;;22.47;81.41
62122;BME280;48108;47.532;19.084;2023-09-08T07:41:45;101057.69;;;22.66;82.17
62122;BME280;48108;47.532;19.084;2023-09-08T07:44:47;101056.47;;;22.85;81.41
62122;BME280;48108;47.532;19.084;2023-09-08T07:47:50;101049.00;;;23.09;79.27
62122;BME280;48108;47.532;19.084;2023-09-08T07:50:56;101048.31;;;23.30;78.49
62122;BME280;48108;47.532;19.084;2023-09-08T07:54:01;101052.84;;;23.08;77.60
62122;BME280;48108;47.532;19.084;2023-09-08T07:57:06;101049.16;;;23.31;78.85
62122;BME280;48108;47.532;19.084;2023-09-08T08:00:09;101057.59;;;23.41;77.33
62122;BME280;48108;47.532;19.084;2023-09-08T08:03:18;101059.03;;;23.44;77.64
62122;BME280;48108;47.532;19.084;2023-09-08T08:06:21;101050.44;;;23.57;75.57
62122;BME280;48108;47.532;19.084;2023-09-08T08:09:25;101054.37;;;23.61;77.80
62122;BME280;48108;47.532;19.084;2023-09-08T08:12:47;101055.19;;;23.73;76.55
62122;BME280;48108;47.532;19.084;2023-09-08T08:16:07;101047.59;;;23.81;75.21
62122;BME280;48108;47.532;19.084;2023-09-08T08:19:26;101046.16;;;23.95;77.53
62122;BME280;48108;47.532;19.084;2023-09-08T08:22:29;101042.91;;;24.32;76.18
62122;BME280;48108;47.532;19.084;2023-09-08T08:25:33;101049.81;;;24.51;73.27
62122;BME280;48108;47.532;19.084;2023-09-08T08:28:36;101052.25;;;24.70;71.44
62122;BME280;48108;47.532;19.084;2023-09-08T08:31:39;101052.81;;;24.33;73.28
62122;BME280;48108;47.532;19.084;2023-09-08T08:34:42;101035.78;;;24.53;73.19
62122;BME280;48108;47.532;19.084;2023-09-08T08:37:45;101040.87;;;24.44;71.67
62122;BME280;48108;47.532;19.084;2023-09-08T08:40:49;101032.47;;;24.73;71.67
62122;BME280;48108;47.532;19.084;2023-09-08T08:43:52;101031.28;;;24.69;70.14
62122;BME280;48108;47.532;19.084;2023-09-08T08:46:57;101026.16;;;24.77;70.06
62122;BME280;48108;47.532;19.084;2023-09-08T08:50:00;101016.19;;;24.93;69.61
62122;BME280;48108;47.532;19.084;2023-09-08T08:53:05;101026.22;;;25.26;69.87
62122;BME280;48108;47.532;19.084;2023-09-08T08:56:18;101034.38;;;25.43;67.88
62122;BME280;48108;47.532;19.084;2023-09-08T08:59:22;101024.41;;;25.69;69.67
62122;BME280;48108;47.532;19.084;2023-09-08T09:02:27;101021.88;;;25.63;68.98
62122;BME280;48108;47.532;19.084;2023-09-08T09:05:32;101022.97;;;25.62;68.87
62122;BME280;48108;47.532;19.084;2023-09-08T09:08:38;101025.16;;;25.60;67.83
62122;BME280;48108;47.532;19.084;2023-09-08T09:11:42;101010.06;;;25.67;67.42
62122;BME280;48108;47.532;19.084;2023-09-08T09:14:46;101014.09;;;25.54;68.37
62122;BME280;48108;47.532;19.084;2023-09-08T09:18:06;101013.03;;;25.61;68.84
62122;BME280;48108;47.532;19.084;2023-09-08T09:21:09;101009.31;;;25.77;63.22
62122;BME280;48108;47.532;19.084;2023-09-08T09:24:16;101004.00;;;25.97;63.83
62122;BME280;48108;47.532;19.084;2023-09-08T09:27:22;101003.06;;;26.24;66.74
62122;BME280;48108;47.532;19.084;2023-09-08T09:30:27;101003.75;;;26.52;65.18
62122;BME280;48108;47.532;19.084;2023-09-08T09:33:30;101004.09;;;26.60;61.38
62122;BME280;48108;47.532;19.084;2023-09-08T09:36:39;100997.75;;;26.65;62.57
62122;BME280;48108;47.532;19.084;2023-09-08T09:39:49;101001.69;;;26.89;60.82
62122;BME280;48108;47.532;19.084;2023-09-08T09:42:53;101005.56;;;26.94;59.81
62122;BME280;48108;47.532;19.084;2023-09-08T09:45:56;101003.97;;;27.08;59.08
62122;BME280;48108;47.532;19.084;2023-09-08T09:48:59;101005.41;;;27.16;60.42
62122;BME280;48108;47.532;19.084;2023-09-08T09:52:02;100995.44;;;27.14;59.44
62122;BME280;48108;47.532;19.084;2023-09-08T09:55:06;100997.41;;;27.24;56.60
62122;BME280;48108;47.532;19.084;2023-09-08T09:58:11;100995.47;;;27.40;56.67
62122;BME280;48108;47.532;19.084;2023-09-08T10:01:18;100990.78;;;27.51;54.94
62122;BME280;48108;47.532;19.084;2023-09-08T10:04:21;100992.44;;;27.77;54.32
62122;BME280;48108;47.532;19.084;2023-09-08T10:07:24;100995.75;;;27.85;52.84
62122;BME280;48108;47.532;19.084;2023-09-08T10:10:29;100992.97;;;27.64;53.64
62122;BME280;48108;47.532;19.084;2023-09-08T10:13:39;100994.09;;;27.73;51.12
62122;BME280;48108;47.532;19.084;2023-09-08T10:16:44;100984.69;;;27.74;52.32
62122;BME280;48108;47.532;19.084;2023-09-08T10:19:53;100998.28;;;27.86;53.17
62122;BME280;48108;47.532;19.084;2023-09-08T10:23:06;100990.50;;;28.03;51.22
62122;BME280;48108;47.532;19.084;2023-09-08T10:26:12;100981.31;;;28.18;49.53
62122;BME280;48108;47.532;19.084;2023-09-08T10:29:18;100975.44;;;28.51;48.71
62122;BME280;48108;47.532;19.084;2023-09-08T10:32:22;100976.28;;;28.36;48.58
62122;BME280;48108;47.532;19.084;2023-09-08T10:35:26;100970.94;;;28.60;49.66
62122;BME280;48108;47.532;19.084;2023-09-08T10:38:32;100969.53;;;28.67;49.28
62122;BME280;48108;47.532;19.084;2023-09-08T10:41:36;100965.69;;;29.13;45.74
62122;BME280;48108;47.532;19.084;2023-09-08T10:44:39;100960.00;;;28.89;45.88
62122;BME280;48108;47.532;19.084;2023-09-08T10:50:48;100959.41;;;29.02;43.82
62122;BME280;48108;47.532;19.084;2023-09-08T10:53:51;100963.75;;;29.13;42.02
62122;BME280;48108;47.532;19.084;2023-09-08T10:56:55;100960.44;;;29.80;44.70
62122;BME280;48108;47.532;19.084;2023-09-08T11:00:04;100957.56;;;29.90;41.43
62122;BME280;48108;47.532;19.084;2023-09-08T11:03:25;100956.88;;;30.03;38.33
62122;BME280;48108;47.532;19.084;2023-09-08T11:06:30;100956.03;;;30.32;40.41
62122;BME280;48108;47.532;19.084;2023-09-08T11:09:37;100957.81;;;30.23;36.60
62122;BME280;48108;47.532;19.084;2023-09-08T11:12:40;100955.75;;;30.04;36.61
62122;BME280;48108;47.532;19.084;2023-09-08T11:15:43;100949.00;;;30.59;35.91
62122;BME280;48108;47.532;19.084;2023-09-08T11:18:46;100948.19;;;31.01;34.30
62122;BME280;48108;47.532;19.084;2023-09-08T11:21:49;100947.94;;;31.68;33.66
62122;BME280;48108;47.532;19.084;2023-09-08T11:24:53;100934.59;;;32.25;32.20
62122;BME280;48108;47.532;19.084;2023-09-08T11:27:59;100937.09;;;33.27;31.35
62122;BME280;48108;47.532;19.084;2023-09-08T11:31:04;100925.06;;;33.49;31.02
62122;BME280;48108;47.532;19.084;2023-09-08T11:34:08;100931.38;;;34.17;29.34
62122;BME280;48108;47.532;19.084;2023-09-08T11:37:13;100924.19;;;33.62;29.09
62122;BME280;48108;47.532;19.084;2023-09-08T11:40:17;100914.56;;;34.57;27.60
62122;BME280;48108;47.532;19.084;2023-09-08T11:43:22;100913.75;;;35.00;26.36
62122;BME280;48108;47.532;19.084;2023-09-08T11:46:24;100920.50;;;36.07;24.53
62122;BME280;48108;47.532;19.084;2023-09-08T11:49:36;100909.66;;;37.19;23.52
62122;BME280;48108;47.532;19.084;2023-09-08T11:52:39;100908.56;;;38.27;22.60
62122;BME280;48108;47.532;19.084;2023-09-08T11:55:43;100913.09;;;39.37;21.10
62122;BME280;48108;47.532;19.084;2023-09-08T11:58:47;100909.59;;;39.72;20.68
62122;BME280;48108;47.532;19.084;2023-09-08T12:01:50;100897.94;;;41.53;19.00
62122;BME280;48108;47.532;19.084;2023-09-08T12:04:53;100900.31;;;40.34;20.55
62122;BME280;48108;47.532;19.084;2023-09-08T12:07:57;100897.28;;;41.40;19.64
62122;BME280;48108;47.532;19.084;2023-09-08T12:11:02;100887.53;;;42.60;18.63
62122;BME280;48108;47.532;19.084;2023-09-08T12:14:07;100886.56;;;43.91;18.26
62122;BME280;48108;47.532;19.084;2023-09-08T12:17:11;100875.69;;;44.00;17.94
62122;BME280;48108;47.532;19.084;2023-09-08T12:20:17;100890.56;;;43.08;17.93
62122;BME280;48108;47.532;19.084;2023-09-08T12:23:21;100872.56;;;41.57;18.08
62122;BME280;48108;47.532;19.084;2023-09-08T12:26:25;100872.47;;;42.26;17.25
62122;BME280;48108;47.532;19.084;2023-09-08T12:29:28;100874.91;;;42.84;17.79
62122;BME280;48108;47.532;19.084;2023-09-08T12:32:32;100869.81;;;43.34;16.57
62122;BME280;48108;47.532;19.084;2023-09-08T12:35:35;100869.09;;;43.85;16.19
62122;BME280;48108;47.532;19.084;2023-09-08T12:38:38;100865.66;;;44.94;15.54
62122;BME280;48108;47.532;19.084;2023-09-08T12:41:41;100852.75;;;45.25;14.62
62122;BME280;48108;47.532;19.084;2023-09-08T12:44:44;100858.00;;;44.25;16.17
62122;BME280;48108;47.532;19.084;2023-09-08T12:47:47;100857.34;;;41.88;17.55
62122;BME280;48108;47.532;19.084;2023-09-08T12:50:50;100854.72;;;42.55;17.07
62122;BME280;48108;47.532;19.084;2023-09-08T12:53:54;100850.59;;;44.83;14.93
62122;BME280;48108;47.532;19.084;2023-09-08T12:56:56;100846.91;;;44.75;15.24
62122;BME280;48108;47.532;19.084;2023-09-08T12:59:59;100844.22;;;45.18;14.85
62122;BME280;48108;47.532;19.084;2023-09-08T13:03:02;100843.00;;;45.33;14.78
62122;BME280;48108;47.532;19.084;2023-09-08T13:06:08;100843.81;;;43.25;16.34
62122;BME280;48108;47.532;19.084;2023-09-08T13:09:11;100833.66;;;45.15;14.93
62122;BME280;48108;47.532;19.084;2023-09-08T13:12:14;100836.53;;;45.76;15.05
62122;BME280;48108;47.532;19.084;2023-09-08T13:15:17;100825.84;;;46.41;14.50
62122;BME280;48108;47.532;19.084;2023-09-08T13:18:20;100830.03;;;45.72;14.33
62122;BME280;48108;47.532;19.084;2023-09-08T13:21:23;100829.87;;;44.78;14.77
62122;BME280;48108;47.532;19.084;2023-09-08T13:24:26;100819.87;;;45.63;15.25
62122;BME280;48108;47.532;19.084;2023-09-08T13:27:29;100820.22;;;46.08;14.55
62122;BME280;48108;47.532;19.084;2023-09-08T13:30:31;100832.25;;;46.70;13.79
62122;BME280;48108;47.532;19.084;2023-09-08T13:33:34;100823.09;;;45.44;14.64
62122;BME280;48108;47.532;19.084;2023-09-08T13:36:38;100815.38;;;45.80;14.18
62122;BME280;48108;47.532;19.084;2023-09-08T13:39:40;100825.12;;;43.61;15.24
62122;BME280;48108;47.532;19.084;2023-09-08T13:42:43;100820.22;;;43.14;15.41
62122;BME280;48108;47.532;19.084;2023-09-08T13:45:47;100812.72;;;44.50;14.71
62122;BME280;48108;47.532;19.084;2023-09-08T13:48:50;100810.22;;;42.86;15.81
62122;BME280;48108;47.532;19.084;2023-09-08T13:51:55;100807.56;;;43.48;16.06
62122;BME280;48108;47.532;19.084;2023-09-08T13:54:59;100806.81;;;43.11;15.95
62122;BME280;48108;47.532;19.084;2023-09-08T13:58:22;100799.03;;;43.00;15.93
62122;BME280;48108;47.532;19.084;2023-09-08T14:01:28;100804.31;;;42.34;16.55
62122;BME280;48108;47.532;19.084;2023-09-08T14:04:36;100791.34;;;41.31;17.24
62122;BME280;48108;47.532;19.084;2023-09-08T14:07:43;100798.91;;;39.27;18.94
62122;BME280;48108;47.532;19.084;2023-09-08T14:10:53;100802.19;;;37.55;20.81
62122;BME280;48108;47.532;19.084;2023-09-08T14:13:59;100794.75;;;35.11;22.88
62122;BME280;48108;47.532;19.084;2023-09-08T14:17:03;100791.56;;;33.91;24.61
62122;BME280;48108;47.532;19.084;2023-09-08T14:20:08;100782.16;;;33.38;25.42
62122;BME280;48108;47.532;19.084;2023-09-08T14:23:11;100790.28;;;31.86;27.43
62122;BME280;48108;47.532;19.084;2023-09-08T14:26:14;100781.09;;;31.85;28.01
62122;BME280;48108;47.532;19.084;2023-09-08T14:29:17;100792.28;;;31.25;28.59
62122;BME280;48108;47.532;19.084;2023-09-08T14:32:20;100780.25;;;30.45;29.54
62122;BME280;48108;47.532;19.084;2023-09-08T14:35:23;100782.19;;;30.45;29.59
62122;BME280;48108;47.532;19.084;2023-09-08T14:38:26;100775.66;;;30.36;29.67
62122;BME280;48108;47.532;19.084;2023-09-08T14:41:30;100784.81;;;29.98;30.27
62122;BME280;48108;47.532;19.084;2023-09-08T14:44:32;100782.97;;;29.41;31.46
62122;BME280;48108;47.532;19.084;2023-09-08T14:47:36;100779.81;;;29.47;31.86
62122;BME280;48108;47.532;19.084;2023-09-08T14:50:39;100772.09;;;29.20;32.35
62122;BME280;48108;47.532;19.084;2023-09-08T14:53:42;100771.53;;;28.84;32.41
62122;BME280;48108;47.532;19.084;2023-09-08T14:56:46;100771.63;;;28.79;32.42
62122;BME280;48108;47.532;19.084;2023-09-08T14:59:50;100775.47;;;28.78;32.60
62122;BME280;48108;47.532;19.084;2023-09-08T15:02:58;100765.78;;;28.41;32.67
62122;BME280;48108;47.532;19.084;2023-09-08T15:06:02;100767.50;;;28.32;33.49
62122;BME280;48108;47.532;19.084;2023-09-08T15:09:05;100759.25;;;28.21;34.23
62122;BME280;48108;47.532;19.084;2023-09-08T15:12:08;100765.47;;;28.03;33.37
62122;BME280;48108;47.532;19.084;2023-09-08T15:15:12;100779.63;;;27.91;32.60
62122;BME280;48108;47.532;19.084;2023-09-08T15:18:15;100774.44;;;27.79;32.40
62122;BME280;48108;47.532;19.084;2023-09-08T15:21:20;100766.19;;;27.54;32.97
62122;BME280;48108;47.532;19.084;2023-09-08T15:24:28;100770.62;;;27.50;33.08
62122;BME280;48108;47.532;19.084;2023-09-08T15:27:31;100765.38;;;27.43;34.03
62122;BME280;48108;47.532;19.084;2023-09-08T15:30:34;100770.38;;;27.41;34.61
62122;BME280;48108;47.532;19.084;2023-09-08T15:33:37;100762.91;;;27.42;34.85
62122;BME280;48108;47.532;19.084;2023-09-08T15:36:41;100765.44;;;27.23;34.92
62122;BME280;48108;47.532;19.084;2023-09-08T15:39:44;100762.41;;;27.19;34.53
62122;BME280;48108;47.532;19.084;2023-09-08T15:42:47;100766.28;;;27.23;34.37
62122;BME280;48108;47.532;19.084;2023-09-08T15:45:52;100759.91;;;27.12;34.82
62122;BME280;48108;47.532;19.084;2023-09-08T15:48:56;100763.78;;;26.96;35.18
62122;BME280;48108;47.532;19.084;2023-09-08T15:51:59;100758.25;;;26.91;35.19
62122;BME280;48108;47.532;19.084;2023-09-08T15:55:17;100765.19;;;26.88;35.75
62122;BME280;48108;47.532;19.084;2023-09-08T15:58:20;100761.88;;;26.81;35.66
62122;BME280;48108;47.532;19.084;2023-09-08T16:01:24;100756.34;;;26.81;35.18
62122;BME280;48108;47.532;19.084;2023-09-08T16:04:27;100755.53;;;26.71;35.65
62122;BME280;48108;47.532;19.084;2023-09-08T16:07:31;100754.97;;;26.63;35.62
62122;BME280;48108;47.532;19.084;2023-09-08T16:10:34;100751.38;;;26.58;35.75
62122;BME280;48108;47.532;19.084;2023-09-08T16:13:37;100758.28;;;26.55;36.04
62122;BME280;48108;47.532;19.084;2023-09-08T16:16:40;100747.75;;;26.42;35.68
62122;BME280;48108;47.532;19.084;2023-09-08T16:19:43;100751.91;;;26.44;35.72
62122;BME280;48108;47.532;19.084;2023-09-08T16:22:47;100751.03;;;26.44;35.57
62122;BME280;48108;47.532;19.084;2023-09-08T16:25:50;100752.44;;;26.36;35.44
62122;BME280;48108;47.532;19.084;2023-09-08T16:28:53;100745.22;;;26.25;35.89
62122;BME280;48108;47.532;19.084;2023-09-08T16:31:56;100746.06;;;26.15;36.11
62122;BME280;48108;47.532;19.084;2023-09-08T16:34:59;100748.50;;;26.07;36.46
62122;BME280;48108;47.532;19.084;2023-09-08T16:38:03;100757.84;;;25.95;36.84
62122;BME280;48108;47.532;19.084;2023-09-08T16:41:06;100750.09;;;25.87;37.21
62122;BME280;48108;47.532;19.084;2023-09-08T16:44:09;100754.47;;;25.78;37.55
62122;BME280;48108;47.532;19.084;2023-09-08T16:47:12;100756.34;;;25.72;38.16
62122;BME280;48108;47.532;19.084;2023-09-08T16:50:15;100759.91;;;25.63;38.77
62122;BME280;48108;47.532;19.084;2023-09-08T16:53:18;100752.41;;;25.48;39.87
62122;BME280;48108;47.532;19.084;2023-09-08T16:56:21;100760.06;;;25.41;40.04
62122;BME280;48108;47.532;19.084;2023-09-08T16:59:24;100757.81;;;25.32;40.00
62122;BME280;48108;47.532;19.084;2023-09-08T17:02:27;100754.44;;;25.20;40.80
62122;BME280;48108;47.532;19.084;2023-09-08T17:05:32;100759.00;;;25.04;42.15
62122;BME280;48108;47.532;19.084;2023-09-08T17:08:35;100759.44;;;24.91;42.25
62122;BME280;48108;47.532;19.084;2023-09-08T17:11:37;100764.31;;;24.79;42.68
62122;BME280;48108;47.532;19.084;2023-09-08T17:14:42;100763.06;;;24.64;42.83
62122;BME280;48108;47.532;19.084;2023-09-08T17:17:45;100761.91;;;24.55;42.97
62122;BME280;48108;47.532;19.084;2023-09-08T17:20:48;100766.53;;;24.50;44.29
62122;BME280;48108;47.532;19.084;2023-09-08T17:23:51;100768.28;;;24.34;46.08
62122;BME280;48108;47.532;19.084;2023-09-08T17:26:55;100769.81;;;24.25;47.98
